Time;durP1;ratioP1;P1;durP2;ratioP2;P2;SDS_P1;SDS_P2;PMS_P1;PMS_P2;Temp;Humidity;BMP_temperature;BMP_pressure;BME280_temperature;BME280_humidity;BME280_pressure;Samples;Min_cycle;Max_cycle;Signal;HPM_P1;HPM_P2
2021/03/30 00:00:52;;;;;;;8.65;1.85;;;7.30;99.90;;;;;;1862267;75;21088;-73
2021/03/30 00:03:18;;;;;;;7.25;1.47;;;7.40;99.90;;;;;;1870701;75;21063;-73
2021/03/30 00:05:45;;;;;;;5.28;1.92;;;7.40;99.90;;;;;;1871838;75;21086;-73
2021/03/30 00:08:11;;;;;;;2.15;1.22;;;7.40;99.90;;;;;;1868946;75;21095;-73
2021/03/30 00:10:37;;;;;;;2.90;1.42;;;7.30;99.90;;;;;;1859391;75;21087;-73
2021/03/30 00:13:03;;;;;;;5.40;1.52;;;7.30;99.90;;;;;;1868789;75;21176;-73
2021/03/30 00:15:29;;;;;;;2.87;1.62;;;7.20;99.90;;;;;;1873935;75;21161;-73
2021/03/30 00:17:55;;;;;;;2.35;1.52;;;7.20;99.90;;;;;;1871328;75;21174;-73
2021/03/30 00:20:21;;;;;;;3.00;1.80;;;7.10;99.90;;;;;;1869946;75;21079;-73
2021/03/30 00:22:48;;;;;;;4.67;1.77;;;7.10;99.90;;;;;;1863913;75;21161;-73
2021/03/30 00:25:14;;;;;;;2.25;1.57;;;7.00;99.90;;;;;;1871454;75;21168;-73
2021/03/30 00:27:40;;;;;;;3.40;1.90;;;6.90;99.90;;;;;;1867813;75;21562;-73
2021/03/30 00:30:06;;;;;;;4.22;2.02;;;7.00;99.90;;;;;;1867184;75;21506;-73
2021/03/30 00:32:32;;;;;;;8.95;1.55;;;6.90;99.90;;;;;;1869164;75;21501;-72
2021/03/30 00:34:58;;;;;;;5.53;2.02;;;6.90;99.90;;;;;;1863016;75;21096;-72
2021/03/30 00:37:24;;;;;;;4.67;1.70;;;6.90;99.90;;;;;;1867920;75;21067;-71
2021/03/30 00:39:50;;;;;;;4.80;1.60;;;6.90;99.90;;;;;;1866919;75;21298;-72
2021/03/30 00:42:17;;;;;;;2.47;1.77;;;6.90;99.90;;;;;;1866807;75;21197;-72
2021/03/30 00:44:43;;;;;;;5.08;1.98;;;6.80;99.90;;;;;;1863880;75;21094;-72
2021/03/30 00:47:09;;;;;;;1.82;1.25;;;6.80;99.90;;;;;;1860280;75;21099;-72
2021/03/30 00:49:35;;;;;;;5.67;1.75;;;6.70;99.90;;;;;;1862318;75;21487;-72
2021/03/30 00:52:02;;;;;;;5.33;2.27;;;6.60;99.90;;;;;;1867115;75;21165;-71
2021/03/30 00:54:28;;;;;;;3.15;1.90;;;6.60;99.90;;;;;;1863782;75;21095;-72
2021/03/30 00:56:54;;;;;;;2.47;2.05;;;6.50;99.90;;;;;;1871658;75;21142;-73
2021/03/30 00:59:20;;;;;;;3.50;2.00;;;6.50;99.90;;;;;;1872357;75;21067;-72
2021/03/30 01:01:46;;;;;;;3.70;1.65;;;6.50;99.90;;;;;;1867227;75;21052;-72
2021/03/30 01:04:13;;;;;;;7.08;1.90;;;6.60;99.90;;;;;;1866400;75;21095;-72
2021/03/30 01:06:39;;;;;;;3.75;1.82;;;6.50;99.90;;;;;;1862532;75;21056;-72
2021/03/30 01:09:05;;;;;;;5.33;1.90;;;6.60;99.90;;;;;;1862000;75;21094;-72
2021/03/30 01:11:31;;;;;;;10.85;1.67;;;6.50;99.90;;;;;;1873577;75;21098;-72
2021/03/30 01:13:57;;;;;;;7.67;2.17;;;6.50;99.90;;;;;;1872554;75;21106;-72
2021/03/30 01:16:23;;;;;;;2.80;1.85;;;6.40;99.90;;;;;;1865042;75;21602;-72
2021/03/30 01:18:49;;;;;;;3.55;1.62;;;6.40;99.90;;;;;;1868115;75;21582;-72
2021/03/30 01:21:15;;;;;;;3.25;1.70;;;6.20;99.90;;;;;;1867092;75;21526;-72
2021/03/30 01:23:41;;;;;;;3.70;1.82;;;6.30;99.90;;;;;;1872139;75;21090;-72
2021/03/30 01:26:08;;;;;;;3.02;1.75;;;6.20;99.90;;;;;;1862158;75;21095;-73
2021/03/30 01:28:34;;;;;;;2.65;1.80;;;6.20;99.90;;;;;;1866440;75;21091;-73
2021/03/30 01:31:00;;;;;;;5.58;2.22;;;6.10;99.90;;;;;;1872727;75;21248;-73
2021/03/30 01:33:26;;;;;;;5.95;2.00;;;6.10;99.90;;;;;;1870814;75;21068;-73
2021/03/30 01:35:52;;;;;;;6.45;1.77;;;6.00;99.90;;;;;;1862292;75;21091;-73
2021/03/30 01:38:18;;;;;;;3.90;2.20;;;6.00;99.90;;;;;;1865272;75;21052;-73
2021/03/30 01:40:44;;;;;;;2.52;1.65;;;5.90;99.90;;;;;;1867818;75;21106;-73
2021/03/30 01:43:10;;;;;;;2.90;1.65;;;5.90;99.90;;;;;;1871003;76;21514;-73
2021/03/30 01:45:37;;;;;;;7.20;2.05;;;5.90;99.90;;;;;;1872067;75;21471;-72
2021/03/30 01:48:03;;;;;;;8.13;2.35;;;6.00;99.90;;;;;;1869303;75;21519;-73
2021/03/30 01:50:29;;;;;;;2.60;1.65;;;5.90;99.90;;;;;;1872617;75;21052;-72
2021/03/30 01:52:55;;;;;;;2.20;1.45;;;5.80;99.90;;;;;;1866500;75;21087;-73
2021/03/30 01:55:21;;;;;;;2.52;1.70;;;5.70;99.90;;;;;;1867870;75;21087;-72
2021/03/30 01:57:47;;;;;;;3.22;2.20;;;5.80;99.90;;;;;;1862552;75;21178;-73
2021/03/30 02:00:13;;;;;;;2.35;1.50;;;5.80;99.90;;;;;;1868390;75;21086;-73
2021/03/30 02:02:39;;;;;;;2.65;1.75;;;5.70;99.90;;;;;;1863978;75;21095;-72
2021/03/30 02:05:06;;;;;;;2.20;1.27;;;5.60;99.90;;;;;;1868528;75;21057;-72
2021/03/30 02:07:32;;;;;;;3.10;1.72;;;5.60;99.90;;;;;;1873183;75;21090;-73
2021/03/30 02:10:02;;;;;;;2.17;1.70;;;5.60;99.90;;;;;;1859175;75;21626;-73
2021/03/30 02:12:31;;;;;;;2.40;1.70;;;5.60;99.90;;;;;;1861827;75;21125;-72
2021/03/30 02:14:53;;;;;;;3.55;1.92;;;5.60;99.90;;;;;;1861256;75;21116;-73
2021/03/30 02:17:20;;;;;;;6.30;2.20;;;5.70;99.90;;;;;;1868344;75;21091;-73
2021/03/30 02:19:46;;;;;;;2.90;1.70;;;5.70;99.90;;;;;;1865769;75;21099;-74
2021/03/30 02:22:12;;;;;;;6.60;1.92;;;5.70;99.90;;;;;;1872137;75;21181;-73
2021/03/30 02:24:38;;;;;;;4.33;2.02;;;5.60;99.90;;;;;;1869286;75;21519;-73
2021/03/30 02:27:04;;;;;;;1.75;1.50;;;5.60;99.90;;;;;;1870837;75;21527;-73
2021/03/30 02:29:33;;;;;;;2.80;1.75;;;5.50;99.90;;;;;;1872279;75;21585;-72
2021/03/30 02:31:58;;;;;;;4.85;1.62;;;5.40;99.90;;;;;;1870560;75;21120;-73
2021/03/30 02:34:24;;;;;;;2.02;1.80;;;5.30;99.90;;;;;;1872205;75;21273;-73
2021/03/30 02:36:53;;;;;;;2.00;1.37;;;5.30;99.90;;;;;;1867581;75;21508;-73
2021/03/30 02:39:18;;;;;;;4.75;1.82;;;5.20;99.90;;;;;;1874326;76;21189;-73
2021/03/30 02:41:44;;;;;;;1.87;1.52;;;5.10;99.90;;;;;;1870816;75;21107;-73
2021/03/30 02:44:10;;;;;;;8.13;1.80;;;5.20;99.90;;;;;;1865957;75;21111;-73
2021/03/30 02:46:38;;;;;;;6.62;1.98;;;5.10;99.90;;;;;;1871107;75;21059;-73
2021/03/30 02:49:04;;;;;;;4.62;1.92;;;5.10;99.90;;;;;;1872148;76;21103;-72
2021/03/30 02:51:30;;;;;;;4.45;2.00;;;5.10;99.90;;;;;;1866111;75;21620;-72
2021/03/30 02:53:57;;;;;;;4.00;2.30;;;5.00;99.90;;;;;;1870498;75;21518;-73
2021/03/30 02:56:24;;;;;;;4.90;2.00;;;5.10;99.90;;;;;;1869019;75;21086;-72
2021/03/30 02:58:50;;;;;;;4.45;1.90;;;5.10;99.90;;;;;;1870698;75;21106;-72
2021/03/30 03:01:16;;;;;;;3.58;1.82;;;5.10;99.90;;;;;;1865258;75;21161;-72
2021/03/30 03:03:42;;;;;;;4.22;1.85;;;5.00;99.90;;;;;;1869704;76;21103;-73
2021/03/30 03:06:08;;;;;;;2.67;1.90;;;4.90;99.90;;;;;;1870204;75;21487;-73
2021/03/30 03:08:35;;;;;;;3.07;2.27;;;4.80;99.90;;;;;;1869210;75;21514;-73
2021/03/30 03:11:01;;;;;;;2.30;1.75;;;4.80;99.90;;;;;;1862760;75;21553;-73
2021/03/30 03:13:27;;;;;;;3.30;1.90;;;4.80;99.90;;;;;;1873475;75;21082;-73
2021/03/30 03:15:53;;;;;;;7.15;1.85;;;4.70;99.90;;;;;;1871733;75;21092;-73
2021/03/30 03:18:19;;;;;;;2.92;2.20;;;4.70;99.90;;;;;;1871029;75;21091;-73
2021/03/30 03:20:45;;;;;;;5.40;2.10;;;4.70;99.90;;;;;;1873320;75;21121;-73
2021/03/30 03:23:11;;;;;;;3.62;2.08;;;4.80;99.90;;;;;;1870517;75;21060;-73
2021/03/30 03:25:37;;;;;;;2.10;1.80;;;4.90;99.90;;;;;;1874649;75;21090;-73
2021/03/30 03:28:04;;;;;;;3.98;1.60;;;4.90;99.90;;;;;;1870054;75;21091;-73
2021/03/30 03:30:30;;;;;;;5.80;2.25;;;4.80;99.90;;;;;;1868683;75;21091;-73
2021/03/30 03:32:56;;;;;;;5.05;2.08;;;4.80;99.90;;;;;;1872126;75;21087;-73
2021/03/30 03:35:22;;;;;;;5.65;1.80;;;4.80;99.90;;;;;;1871460;75;21181;-73
2021/03/30 03:37:48;;;;;;;4.10;2.30;;;4.70;99.90;;;;;;1871709;76;21110;-74
2021/03/30 03:40:14;;;;;;;2.12;1.75;;;4.60;99.90;;;;;;1870952;75;21532;-73
2021/03/30 03:42:40;;;;;;;5.80;1.87;;;4.60;99.90;;;;;;1874704;75;21557;-73
2021/03/30 03:45:06;;;;;;;7.62;2.10;;;4.50;99.90;;;;;;1864203;75;21562;-73
2021/03/30 03:47:33;;;;;;;2.83;1.72;;;4.50;99.90;;;;;;1866779;75;21120;-73
2021/03/30 03:50:01;;;;;;;2.22;1.65;;;4.50;99.90;;;;;;1870817;76;21086;-73
2021/03/30 03:52:26;;;;;;;4.33;2.35;;;4.50;99.90;;;;;;1869030;75;21512;-74
2021/03/30 03:54:53;;;;;;;3.35;2.55;;;4.50;99.90;;;;;;1871761;76;21584;-73
2021/03/30 03:57:19;;;;;;;3.92;2.12;;;4.60;99.90;;;;;;1871647;75;21087;-73
2021/03/30 03:59:46;;;;;;;3.98;1.80;;;4.50;99.90;;;;;;1872475;74;21063;-73
2021/03/30 04:02:12;;;;;;;7.05;2.17;;;4.40;99.90;;;;;;1870894;75;21126;-73
2021/03/30 04:04:38;;;;;;;21.48;2.35;;;4.50;99.90;;;;;;1864310;75;21711;-73
2021/03/30 04:07:06;;;;;;;2.55;1.77;;;4.40;99.90;;;;;;1870014;75;21087;-73
2021/03/30 04:09:32;;;;;;;4.50;2.12;;;4.40;99.90;;;;;;1872335;75;21160;-73
2021/03/30 04:11:59;;;;;;;7.17;1.95;;;4.50;99.90;;;;;;1866942;75;21095;-74
2021/03/30 04:14:25;;;;;;;12.18;1.90;;;4.50;99.90;;;;;;1872259;75;21094;-75
2021/03/30 04:16:51;;;;;;;3.30;2.20;;;4.40;99.90;;;;;;1869627;75;21095;-74
2021/03/30 04:19:17;;;;;;;6.17;2.45;;;4.30;99.90;;;;;;1868681;75;21083;-73
2021/03/30 04:21:44;;;;;;;3.08;2.12;;;4.30;99.90;;;;;;1868452;75;21083;-74
2021/03/30 04:24:10;;;;;;;3.42;2.05;;;4.20;99.90;;;;;;1870006;75;21616;-73
2021/03/30 04:26:36;;;;;;;4.40;1.95;;;4.20;99.90;;;;;;1868217;75;21569;-74
2021/03/30 04:29:02;;;;;;;3.15;2.45;;;4.20;99.90;;;;;;1869822;75;21455;-74
2021/03/30 04:31:28;;;;;;;9.60;2.42;;;4.10;99.90;;;;;;1866334;75;21169;-74
2021/03/30 04:33:54;;;;;;;4.50;2.30;;;4.10;99.90;;;;;;1864007;75;21099;-74
2021/03/30 04:36:20;;;;;;;3.22;2.45;;;4.10;99.90;;;;;;1869069;75;21135;-73
2021/03/30 04:38:46;;;;;;;4.97;2.63;;;4.10;99.90;;;;;;1867563;75;21090;-74
2021/03/30 04:41:12;;;;;;;2.58;1.87;;;4.10;99.90;;;;;;1867175;74;21079;-74
2021/03/30 04:43:39;;;;;;;7.17;2.30;;;4.10;99.90;;;;;;1872062;75;21186;-73
2021/03/30 04:46:05;;;;;;;4.45;2.15;;;4.10;99.90;;;;;;1868018;75;21056;-73
2021/03/30 04:48:31;;;;;;;3.77;2.50;;;4.00;99.90;;;;;;1864289;75;21137;-74
2021/03/30 04:50:57;;;;;;;5.22;2.40;;;4.00;99.90;;;;;;1874410;75;21087;-74
2021/03/30 04:53:23;;;;;;;7.40;2.25;;;4.00;99.90;;;;;;1874195;76;21161;-74
2021/03/30 04:55:49;;;;;;;4.03;2.27;;;4.00;99.90;;;;;;1871793;75;21099;-75
2021/03/30 04:58:15;;;;;;;3.12;2.37;;;4.00;99.90;;;;;;1863615;75;21507;-74
2021/03/30 05:00:41;;;;;;;3.75;2.27;;;3.90;99.90;;;;;;1870693;75;21561;-74
2021/03/30 05:03:08;;;;;;;5.72;2.50;;;3.90;99.90;;;;;;1872700;74;21435;-74
2021/03/30 05:05:37;;;;;;;3.60;2.17;;;3.90;99.90;;;;;;1864503;75;21099;-75
2021/03/30 05:08:01;;;;;;;5.65;2.22;;;3.90;99.90;;;;;;1868089;75;21131;-74
2021/03/30 05:10:28;;;;;;;6.97;2.37;;;3.90;99.90;;;;;;1870630;75;21476;-76
2021/03/30 05:12:54;;;;;;;2.27;1.92;;;3.90;99.90;;;;;;1864308;75;21510;-75
2021/03/30 05:15:20;;;;;;;2.45;2.02;;;3.90;99.90;;;;;;1869191;75;21480;-75
2021/03/30 05:17:46;;;;;;;6.15;2.10;;;3.90;99.90;;;;;;1870167;75;21075;-75
2021/03/30 05:20:12;;;;;;;2.10;1.87;;;4.00;99.90;;;;;;1870040;75;21095;-75
2021/03/30 05:22:38;;;;;;;11.55;2.72;;;3.90;99.90;;;;;;1867283;75;21177;-75
2021/03/30 05:25:04;;;;;;;6.47;2.58;;;4.00;99.90;;;;;;1869221;75;21227;-75
2021/03/30 05:27:30;;;;;;;5.62;2.67;;;4.00;99.90;;;;;;1861310;75;21086;-75
2021/03/30 05:29:57;;;;;;;2.77;1.87;;;4.00;99.90;;;;;;1867939;75;21086;-76
2021/03/30 05:32:23;;;;;;;16.23;2.58;;;4.10;99.90;;;;;;1871007;75;21091;-75
2021/03/30 05:34:49;;;;;;;6.50;2.40;;;4.10;99.90;;;;;;1864833;75;21487;-73
2021/03/30 05:37:15;;;;;;;5.67;2.55;;;4.10;99.90;;;;;;1864873;75;21600;-73
2021/03/30 05:39:41;;;;;;;3.83;2.15;;;4.10;99.90;;;;;;1872384;76;21507;-74
2021/03/30 05:42:07;;;;;;;4.85;2.17;;;4.20;99.90;;;;;;1868020;75;21055;-73
2021/03/30 05:44:33;;;;;;;3.10;2.40;;;4.20;99.90;;;;;;1871559;75;21160;-72
2021/03/30 05:49:36;;;;;;;4.50;2.12;;;4.20;99.90;;;;;;1861868;75;21132;-75
2021/03/30 05:52:01;;;;;;;9.45;2.30;;;4.40;99.90;;;;;;1865747;75;21178;-75
2021/03/30 05:54:27;;;;;;;4.33;2.72;;;4.40;99.90;;;;;;1870962;75;21099;-75
2021/03/30 05:56:53;;;;;;;7.45;2.85;;;4.40;99.90;;;;;;1872046;74;21463;-76
2021/03/30 05:59:19;;;;;;;5.25;2.70;;;4.40;99.90;;;;;;1866514;75;21617;-72
2021/03/30 06:01:45;;;;;;;13.32;2.85;;;4.30;99.90;;;;;;1868083;75;21495;-77
2021/03/30 06:04:12;;;;;;;9.43;2.67;;;4.40;99.90;;;;;;1864638;75;21090;-76
2021/03/30 06:06:39;;;;;;;7.85;2.55;;;4.40;99.90;;;;;;1868793;75;21087;-74
2021/03/30 06:09:05;;;;;;;5.78;2.77;;;4.50;99.90;;;;;;1864879;75;21244;-75
2021/03/30 06:11:31;;;;;;;4.35;2.95;;;4.50;99.90;;;;;;1866628;75;21064;-74
2021/03/30 06:13:57;;;;;;;5.25;2.90;;;4.60;99.90;;;;;;1867218;75;21094;-74
2021/03/30 06:16:23;;;;;;;13.65;3.17;;;4.60;99.90;;;;;;1871583;75;21576;-74
2021/03/30 06:18:49;;;;;;;11.50;3.62;;;4.60;99.90;;;;;;1874093;75;21486;-72
2021/03/30 06:21:15;;;;;;;6.25;3.02;;;4.70;99.90;;;;;;1861702;75;21491;-74
2021/03/30 06:23:41;;;;;;;7.75;3.40;;;4.80;99.90;;;;;;1869236;75;21086;-73
2021/03/30 06:26:08;;;;;;;11.38;3.45;;;4.80;99.90;;;;;;1868612;75;21161;-74
2021/03/30 06:28:34;;;;;;;7.83;3.02;;;4.90;99.90;;;;;;1872756;75;21178;-72
2021/03/30 06:31:00;;;;;;;9.43;3.50;;;5.00;99.90;;;;;;1873872;75;21165;-73
2021/03/30 06:33:26;;;;;;;3.77;2.58;;;5.20;99.90;;;;;;1872480;75;21163;-73
2021/03/30 06:35:52;;;;;;;9.10;3.22;;;5.20;99.90;;;;;;1872700;75;21079;-73
2021/03/30 06:38:18;;;;;;;6.45;3.37;;;5.30;99.90;;;;;;1865519;75;21098;-71
2021/03/30 06:40:46;;;;;;;5.75;3.22;;;5.40;99.90;;;;;;1869796;75;21169;-71
2021/03/30 06:44:24;;;;;;;5.62;2.98;;;5.50;99.90;;;;;;1868876;75;21189;-72
2021/03/30 06:45:40;;;;;;;5.78;3.15;;;5.70;99.90;;;;;;1861277;75;21144;-71
2021/03/30 06:48:06;;;;;;;10.08;2.70;;;5.80;99.90;;;;;;1867257;75;21084;-71
2021/03/30 06:50:33;;;;;;;7.42;2.75;;;6.00;99.90;;;;;;1870346;75;21071;-71
2021/03/30 06:52:59;;;;;;;3.70;2.40;;;6.10;99.90;;;;;;1870817;75;21494;-70
2021/03/30 06:55:25;;;;;;;8.10;3.15;;;6.20;99.90;;;;;;1866214;75;21498;-71
2021/03/30 06:57:51;;;;;;;10.53;3.12;;;6.40;99.90;;;;;;1869938;75;21135;-71
2021/03/30 07:00:17;;;;;;;7.58;2.75;;;6.50;99.90;;;;;;1869877;75;21082;-71
2021/03/30 07:02:43;;;;;;;13.13;3.20;;;6.60;99.90;;;;;;1867713;75;21153;-71
2021/03/30 07:05:10;;;;;;;6.12;2.92;;;6.70;99.90;;;;;;1871985;75;21108;-71
2021/03/30 07:07:36;;;;;;;16.02;3.10;;;6.90;99.90;;;;;;1871525;75;21531;-71
2021/03/30 07:10:02;;;;;;;4.75;2.15;;;7.00;99.90;;;;;;1867452;75;21145;-70
2021/03/30 07:12:28;;;;;;;6.08;2.47;;;7.20;99.90;;;;;;1870240;75;21065;-71
2021/03/30 07:14:54;;;;;;;5.85;3.10;;;7.50;99.90;;;;;;1873511;75;21141;-70
2021/03/30 07:17:20;;;;;;;4.47;2.67;;;7.60;99.90;;;;;;1867574;75;21130;-70
2021/03/30 07:19:46;;;;;;;5.03;2.58;;;7.60;99.90;;;;;;1869089;75;21164;-70
2021/03/30 07:22:12;;;;;;;4.20;2.52;;;7.70;99.90;;;;;;1875439;75;21152;-70
2021/03/30 07:24:39;;;;;;;5.03;2.92;;;7.70;99.90;;;;;;1870142;75;21095;-71
2021/03/30 07:27:05;;;;;;;11.40;3.02;;;7.80;99.90;;;;;;1869952;75;21218;-70
2021/03/30 07:29:36;;;;;;;4.72;2.52;;;7.90;99.90;;;;;;1864733;75;21165;-70
2021/03/30 07:31:59;;;;;;;8.20;2.80;;;8.00;99.90;;;;;;1867202;75;21568;-71
2021/03/30 07:34:25;;;;;;;4.62;2.92;;;8.10;99.90;;;;;;1864597;75;21507;-71
2021/03/30 07:36:52;;;;;;;13.38;3.12;;;8.30;99.90;;;;;;1866129;75;21226;-70
2021/03/30 07:39:18;;;;;;;8.15;2.47;;;8.50;99.90;;;;;;1868889;75;21161;-70
2021/03/30 07:41:44;;;;;;;4.47;2.45;;;8.60;99.90;;;;;;1876855;75;21063;-72
2021/03/30 07:44:10;;;;;;;11.10;2.30;;;8.80;99.90;;;;;;1877295;75;21067;-75
2021/03/30 07:46:36;;;;;;;10.55;2.98;;;9.00;99.90;;;;;;1880855;74;21472;-76
2021/03/30 07:49:03;;;;;;;7.65;3.02;;;9.20;99.90;;;;;;1896080;75;21536;-74
2021/03/30 07:51:30;;;;;;;5.47;2.60;;;9.40;99.90;;;;;;1873540;75;21180;-75
2021/03/30 07:53:56;;;;;;;12.30;2.33;;;9.60;99.90;;;;;;1875614;74;21168;-75
2021/03/30 07:56:22;;;;;;;12.40;2.98;;;9.70;99.90;;;;;;1877185;75;21098;-75
2021/03/30 07:58:48;;;;;;;9.63;3.05;;;9.80;99.90;;;;;;1880035;74;21082;-74
2021/03/30 08:01:14;;;;;;;8.38;2.80;;;9.90;99.90;;;;;;1901739;74;21083;-73
2021/03/30 08:03:40;;;;;;;5.58;2.10;;;10.10;99.90;;;;;;1873668;75;21090;-71
2021/03/30 08:06:06;;;;;;;6.37;2.52;;;10.40;99.90;;;;;;1880948;75;21094;-71
2021/03/30 08:08:33;;;;;;;7.92;2.85;;;10.50;99.90;;;;;;1877853;74;21086;-71
2021/03/30 08:10:59;;;;;;;8.53;2.67;;;11.00;99.90;;;;;;1908333;74;21090;-73
2021/03/30 08:13:25;;;;;;;3.90;2.45;;;11.20;99.90;;;;;;1905417;74;21048;-71
2021/03/30 08:15:51;;;;;;;3.37;2.33;;;11.40;99.90;;;;;;1899172;74;21180;-71
2021/03/30 08:18:17;;;;;;;3.65;2.12;;;11.40;99.90;;;;;;1878601;75;21160;-72
2021/03/30 08:20:43;;;;;;;10.72;2.33;;;11.70;99.90;;;;;;1879062;75;21094;-75
2021/03/30 08:23:13;;;;;;;8.75;2.30;;;12.00;99.90;;;;;;1878359;75;21102;-75
2021/03/30 08:25:39;;;;;;;4.20;2.20;;;12.30;99.90;;;;;;1904534;75;21141;-75
2021/03/30 08:28:05;;;;;;;4.60;2.72;;;12.20;99.90;;;;;;1892239;75;21066;-76
2021/03/30 08:30:34;;;;;;;9.58;2.75;;;12.30;99.90;;;;;;1904990;75;21070;-75
2021/03/30 08:32:59;;;;;;;5.28;2.37;;;12.60;99.90;;;;;;1878992;75;21190;-74
2021/03/30 08:35:25;;;;;;;6.70;2.30;;;13.00;99.90;;;;;;1894368;75;21055;-75
2021/03/30 08:37:52;;;;;;;7.25;2.25;;;13.30;99.90;;;;;;1890840;73;21086;-78
2021/03/30 08:40:18;;;;;;;3.75;2.40;;;13.80;99.90;;;;;;1879990;74;21165;-74
2021/03/30 08:42:44;;;;;;;7.78;1.95;;;14.30;99.90;;;;;;1899174;74;21091;-77
2021/03/30 08:45:10;;;;;;;6.85;2.60;;;14.60;99.90;;;;;;1903841;73;21612;-78
2021/03/30 08:47:36;;;;;;;7.25;2.15;;;14.90;99.90;;;;;;1876576;75;21474;-76
2021/03/30 08:50:02;;;;;;;3.92;2.15;;;14.70;99.90;;;;;;1879158;74;21576;-76
2021/03/30 08:52:28;;;;;;;6.20;2.05;;;14.80;99.90;;;;;;1898597;74;21490;-75
2021/03/30 08:54:58;;;;;;;7.03;2.50;;;15.10;99.90;;;;;;1894351;74;21513;-76
2021/03/30 08:57:23;;;;;;;5.50;2.52;;;15.00;99.90;;;;;;1875186;75;21123;-75
2021/03/30 08:59:49;;;;;;;10.08;2.37;;;15.40;99.90;;;;;;1880765;74;21173;-74
2021/03/30 09:02:15;;;;;;;4.70;2.05;;;15.60;99.90;;;;;;1905320;75;21139;-74
2021/03/30 09:04:46;;;;;;;11.45;2.40;;;15.70;99.90;;;;;;1899836;75;21195;-75
2021/03/30 09:07:09;;;;;;;4.83;2.40;;;16.00;99.90;;;;;;1877078;74;21646;-75
2021/03/30 09:09:36;;;;;;;4.70;2.25;;;16.40;99.90;;;;;;1891908;75;21235;-78
2021/03/30 09:12:05;;;;;;;2.62;1.72;;;16.10;99.90;;;;;;1873762;75;21161;-79
2021/03/30 09:14:31;;;;;;;7.97;2.30;;;16.00;99.90;;;;;;1892946;73;21514;-80
2021/03/30 09:16:57;;;;;;;3.65;1.90;;;15.90;99.90;;;;;;1880013;75;21164;-79
2021/03/30 09:19:34;;;;;;;5.53;2.52;;;16.30;99.90;;;;;;1884819;74;21157;-80
2021/03/30 09:22:06;;;;;;;5.28;1.87;;;16.60;99.90;;;;;;1875302;74;21138;-79
2021/03/30 09:27:15;;;;;;;3.45;2.42;;;17.80;97.40;;;;;;1891651;75;21144;-75
2021/03/30 09:29:41;;;;;;;5.40;2.70;;;17.60;96.40;;;;;;1889998;75;21199;-80
2021/03/30 09:32:07;;;;;;;5.87;2.22;;;16.60;98.60;;;;;;1889386;75;21510;-79
2021/03/30 09:34:33;;;;;;;10.72;2.50;;;16.70;98.20;;;;;;1880063;74;21440;-78
2021/03/30 09:37:00;;;;;;;6.00;2.60;;;16.90;98.20;;;;;;1881417;74;21485;-81
2021/03/30 09:39:26;;;;;;;7.17;2.08;;;17.10;98.30;;;;;;1911223;74;21160;-79
2021/03/30 09:41:53;;;;;;;6.42;2.20;;;18.10;96.90;;;;;;1889479;74;21079;-78
2021/03/30 09:44:20;;;;;;;4.58;2.67;;;17.60;95.10;;;;;;1870656;75;21498;-77
2021/03/30 09:46:46;;;;;;;5.55;2.67;;;17.60;94.90;;;;;;1905468;73;21124;-77
2021/03/30 09:49:12;;;;;;;5.00;2.15;;;18.30;92.60;;;;;;1895834;74;21050;-74
2021/03/30 09:51:38;;;;;;;6.65;2.25;;;18.60;91.50;;;;;;1897251;75;21196;-75
2021/03/30 09:54:04;;;;;;;11.85;2.50;;;18.90;90.60;;;;;;1896690;75;21086;-76
2021/03/30 09:56:35;;;;;;;9.23;2.62;;;19.50;88.10;;;;;;1880494;75;21173;-74
2021/03/30 09:59:00;;;;;;;10.30;3.05;;;19.70;87.90;;;;;;1878570;75;21095;-73
2021/03/30 10:01:28;;;;;;;10.68;2.00;;;20.00;84.60;;;;;;1892758;74;21090;-74
2021/03/30 10:03:58;;;;;;;3.40;2.10;;;20.60;83.60;;;;;;1898551;74;21167;-75
2021/03/30 10:06:29;;;;;;;11.48;2.42;;;20.30;80.90;;;;;;1895497;75;21572;-75
2021/03/30 10:08:55;;;;;;;6.70;2.50;;;20.00;81.40;;;;;;1897097;75;21502;-74
2021/03/30 10:11:21;;;;;;;10.18;3.02;;;20.20;84.20;;;;;;1904700;73;21583;-78
2021/03/30 10:13:47;;;;;;;13.50;2.77;;;20.60;81.60;;;;;;1877294;75;21060;-82
2021/03/30 10:16:14;;;;;;;5.78;2.40;;;20.80;79.40;;;;;;1898596;75;21266;-78
2021/03/30 10:18:40;;;;;;;5.97;2.33;;;21.50;79.00;;;;;;1876489;75;21156;-77
2021/03/30 10:21:06;;;;;;;6.92;2.72;;;22.00;74.70;;;;;;1899105;75;21090;-74
2021/03/30 10:23:34;;;;;;;13.58;2.62;;;21.70;72.70;;;;;;1896520;75;21137;-75
2021/03/30 10:26:00;;;;;;;3.30;2.10;;;21.50;73.40;;;;;;1879669;75;21528;-74
2021/03/30 10:28:26;;;;;;;6.97;2.55;;;22.40;74.50;;;;;;1882222;74;21529;-73
2021/03/30 10:30:58;;;;;;;5.47;2.20;;;23.60;71.10;;;;;;1904617;74;21546;-73
2021/03/30 10:33:23;;;;;;;9.88;2.35;;;23.70;64.30;;;;;;1902145;75;21201;-75
2021/03/30 10:35:49;;;;;;;9.15;2.87;;;23.50;63.20;;;;;;1877385;75;21168;-74
2021/03/30 10:38:15;;;;;;;7.97;2.37;;;22.90;64.80;;;;;;1899291;74;21136;-74
2021/03/30 10:40:43;;;;;;;5.87;2.40;;;23.20;61.40;;;;;;1899942;73;21117;-72
2021/03/30 10:43:10;;;;;;;4.72;1.90;;;22.90;61.70;;;;;;1888229;73;21482;-74
2021/03/30 10:45:36;;;;;;;14.40;2.37;;;23.50;59.20;;;;;;1902576;75;21082;-73
2021/03/30 10:48:02;;;;;;;5.75;2.22;;;23.60;60.20;;;;;;1874541;75;21179;-73
2021/03/30 10:50:28;;;;;;;4.80;1.82;;;23.80;57.10;;;;;;1876927;75;21172;-73
2021/03/30 10:52:55;;;;;;;5.30;1.77;;;24.30;56.80;;;;;;1898887;74;21148;-74
2021/03/30 10:55:21;;;;;;;4.97;2.08;;;23.90;56.20;;;;;;1875624;74;21095;-74
2021/03/30 10:57:47;;;;;;;5.92;1.70;;;23.60;55.90;;;;;;1906863;73;21555;-74
2021/03/30 11:00:14;;;;;;;6.92;1.82;;;23.70;53.60;;;;;;1891983;73;21097;-74
2021/03/30 11:02:40;;;;;;;3.60;2.15;;;23.80;55.20;;;;;;1890545;75;21140;-74
2021/03/30 11:05:06;;;;;;;4.70;1.95;;;24.40;51.90;;;;;;1895521;74;21051;-73
2021/03/30 11:07:35;;;;;;;3.50;1.50;;;24.30;50.80;;;;;;1870798;75;21086;-74
2021/03/30 11:10:04;;;;;;;2.58;1.60;;;24.40;49.20;;;;;;1901570;74;21113;-74
2021/03/30 11:12:29;;;;;;;5.70;1.70;;;24.00;48.60;;;;;;1882877;74;21599;-74
2021/03/30 11:14:55;;;;;;;7.08;1.82;;;23.50;49.30;;;;;;1880272;75;21230;-74
2021/03/30 11:17:21;;;;;;;6.35;1.80;;;23.80;48.80;;;;;;1891634;74;21270;-73
2021/03/30 11:19:47;;;;;;;3.77;1.80;;;23.50;50.40;;;;;;1898791;74;21133;-72
2021/03/30 11:22:15;;;;;;;7.72;2.22;;;23.80;49.50;;;;;;1900210;74;21070;-74
2021/03/30 11:24:43;;;;;;;2.70;1.55;;;24.00;48.80;;;;;;1880783;75;21091;-74
2021/03/30 11:27:09;;;;;;;4.55;1.65;;;24.00;47.20;;;;;;1875701;74;21103;-74
2021/03/30 11:37:34;;;;;;;2.30;1.40;;;25.30;45.70;;;;;;1898663;74;21086;-74
2021/03/30 11:39:47;;;;;;;3.12;1.60;;;26.00;45.00;;;;;;1867145;75;21108;-72
2021/03/30 11:42:13;;;;;;;7.65;1.80;;;26.50;42.80;;;;;;1903286;74;21156;-72
2021/03/30 11:44:39;;;;;;;5.95;1.92;;;26.20;42.20;;;;;;1875524;75;21103;-71
2021/03/30 11:47:05;;;;;;;6.03;1.82;;;26.40;41.80;;;;;;1877844;75;21131;-73
2021/03/30 11:49:32;;;;;;;4.30;1.37;;;26.40;42.00;;;;;;1882191;74;21114;-72
2021/03/30 11:51:58;;;;;;;3.52;1.35;;;26.60;40.10;;;;;;1877818;75;21119;-74
2021/03/30 11:54:25;;;;;;;4.37;1.17;;;26.90;39.90;;;;;;1881637;74;21126;-72
2021/03/30 11:56:51;;;;;;;3.92;1.50;;;27.70;38.20;;;;;;1897075;74;21148;-73
2021/03/30 11:59:21;;;;;;;3.98;1.20;;;28.00;38.00;;;;;;1892742;75;21204;-74
2021/03/30 12:01:45;;;;;;;2.15;1.30;;;28.70;36.00;;;;;;1873649;74;21067;-74
2021/03/30 12:04:11;;;;;;;5.10;1.40;;;27.90;36.70;;;;;;1885499;75;21144;-74
2021/03/30 12:06:37;;;;;;;3.83;1.55;;;27.60;37.80;;;;;;1884960;74;21075;-73
2021/03/30 12:09:03;;;;;;;1.82;1.17;;;27.90;38.10;;;;;;1911780;75;21156;-73
2021/03/30 12:11:29;;;;;;;6.47;1.42;;;26.90;36.40;;;;;;1904890;74;21086;-74
2021/03/30 12:13:55;;;;;;;2.22;1.35;;;26.90;37.40;;;;;;1867921;75;21151;-74
2021/03/30 12:16:21;;;;;;;3.42;1.45;;;26.80;36.10;;;;;;1877833;75;21119;-73
2021/03/30 12:18:48;;;;;;;2.40;1.45;;;26.80;36.60;;;;;;1877660;76;21133;-73
2021/03/30 12:21:14;;;;;;;5.35;1.90;;;27.10;34.80;;;;;;1880266;74;21459;-73
2021/03/30 12:23:40;;;;;;;7.12;1.20;;;27.20;34.30;;;;;;1901510;74;21489;-74
2021/03/30 12:26:06;;;;;;;3.27;1.10;;;28.00;33.60;;;;;;1900176;74;21503;-74
2021/03/30 12:28:32;;;;;;;1.52;0.93;;;27.80;32.50;;;;;;1911706;73;21515;-73
2021/03/30 12:30:58;;;;;;;1.17;0.70;;;27.50;31.50;;;;;;1892508;74;21463;-74
2021/03/30 12:33:24;;;;;;;3.20;1.00;;;27.30;32.30;;;;;;1905488;74;21402;-74
2021/03/30 12:35:50;;;;;;;2.62;1.30;;;27.80;33.70;;;;;;1898308;75;21082;-74
2021/03/30 12:38:17;;;;;;;2.98;1.37;;;28.30;33.00;;;;;;1900545;74;21087;-74
2021/03/30 12:40:43;;;;;;;1.40;1.00;;;28.00;33.00;;;;;;1895292;73;21043;-74
2021/03/30 12:43:10;;;;;;;4.25;1.42;;;27.90;32.90;;;;;;1877765;75;21191;-73
2021/03/30 12:45:36;;;;;;;3.58;0.95;;;28.20;34.50;;;;;;1911772;74;21172;-73
2021/03/30 12:48:02;;;;;;;1.35;1.20;;;28.20;32.60;;;;;;1898087;74;21137;-73
2021/03/30 12:50:28;;;;;;;6.90;1.42;;;28.10;32.20;;;;;;1903483;74;21156;-73
2021/03/30 12:52:54;;;;;;;1.27;1.00;;;27.70;32.50;;;;;;1894395;74;21079;-73
2021/03/30 12:55:21;;;;;;;2.90;1.40;;;27.70;32.90;;;;;;1874381;75;21289;-74
2021/03/30 12:57:47;;;;;;;2.75;0.90;;;27.00;33.30;;;;;;1904634;75;21140;-73
2021/03/30 13:00:14;;;;;;;3.40;1.25;;;26.60;34.10;;;;;;1896020;74;21494;-74